createdAt,value
2022-11-04T00:01:47.238Z,0.60
2022-11-04T00:04:19.159Z,0.50
2022-11-04T00:06:50.947Z,1.33
2022-11-04T00:09:22.850Z,1.10
2022-11-04T00:11:54.620Z,0.50
2022-11-04T00:14:26.408Z,0.30
2022-11-04T00:16:58.322Z,0.23
2022-11-04T00:19:30.086Z,0.30
2022-11-04T00:22:01.915Z,0.30
2022-11-04T00:24:33.787Z,0.50
2022-11-04T00:27:05.566Z,0.37
2022-11-04T00:29:37.355Z,0.27
2022-11-04T00:32:09.152Z,0.50
2022-11-04T00:34:40.924Z,0.73
2022-11-04T00:37:12.735Z,0.50
2022-11-04T00:39:44.597Z,0.37
2022-11-04T00:42:16.559Z,0.50
2022-11-04T00:44:48.461Z,0.83
2022-11-04T00:47:20.244Z,0.63
2022-11-04T00:49:51.992Z,0.53
2022-11-04T00:52:23.759Z,0.50
2022-11-04T00:54:56.177Z,0.60
2022-11-04T00:57:28.019Z,0.70
2022-11-04T00:59:59.805Z,0.70
2022-11-04T01:02:31.711Z,0.70
2022-11-04T01:05:03.670Z,0.60
2022-11-04T01:07:39.643Z,0.40
2022-11-04T01:10:08.858Z,0.47
2022-11-04T01:12:40.628Z,1.50
2022-11-04T01:15:12.393Z,0.70
2022-11-04T01:17:44.143Z,1.27
2022-11-04T01:20:16.092Z,0.53
2022-11-04T01:22:47.835Z,0.40
2022-11-04T01:25:19.600Z,0.20
2022-11-04T01:27:51.374Z,0.40
2022-11-04T01:30:23.530Z,0.30
2022-11-04T01:32:55.267Z,0.20
2022-11-04T01:35:27.191Z,0.43
2022-11-04T01:37:59.005Z,0.13
2022-11-04T01:40:30.803Z,0.50
2022-11-04T01:43:02.678Z,0.30
2022-11-04T01:45:34.538Z,0.20
2022-11-04T01:48:06.415Z,0.20
2022-11-04T01:50:38.275Z,0.20
2022-11-04T01:53:10.441Z,0.20
2022-11-04T01:55:42.540Z,0.87
2022-11-04T01:58:14.328Z,0.20
2022-11-04T02:00:46.440Z,0.33
2022-11-04T02:03:18.218Z,0.10
2022-11-04T02:05:50.007Z,0.23
2022-11-04T02:08:21.802Z,0.20
2022-11-04T02:10:53.721Z,0.10
2022-11-04T02:13:25.507Z,0.20
2022-11-04T02:15:57.346Z,0.20
2022-11-04T02:18:29.128Z,0.10
2022-11-04T02:21:00.935Z,0.20
2022-11-04T02:23:32.685Z,0.10
2022-11-04T02:26:04.452Z,0.10
2022-11-04T02:28:36.175Z,0.40
2022-11-04T02:31:07.983Z,0.37
2022-11-04T02:33:39.975Z,0.20
2022-11-04T02:36:11.828Z,0.40
2022-11-04T02:38:43.601Z,0.23
2022-11-04T02:41:15.437Z,0.30
2022-11-04T02:43:47.220Z,0.30
2022-11-04T02:46:19.034Z,0.40
2022-11-04T02:48:51.027Z,0.33
2022-11-04T02:51:22.891Z,0.30
2022-11-04T02:53:54.599Z,0.30
2022-11-04T02:56:26.399Z,1.00
2022-11-04T02:58:58.179Z,0.33
2022-11-04T03:01:30.179Z,0.57
2022-11-04T03:04:02.133Z,0.43
2022-11-04T03:06:33.906Z,0.40
2022-11-04T03:09:05.717Z,0.70
2022-11-04T03:11:37.657Z,0.50
2022-11-04T03:14:09.376Z,0.70
2022-11-04T03:16:41.300Z,0.70
2022-11-04T03:19:13.086Z,0.60
2022-11-04T03:21:44.851Z,0.77
2022-11-04T03:24:16.645Z,0.57
2022-11-04T03:26:48.459Z,0.70
2022-11-04T03:29:20.194Z,0.53
2022-11-04T03:31:51.951Z,0.60
2022-11-04T03:34:23.723Z,0.50
2022-11-04T03:36:55.645Z,0.60
2022-11-04T03:39:27.425Z,0.30
2022-11-04T03:41:59.485Z,0.53
2022-11-04T03:44:31.311Z,0.50
2022-11-04T03:47:03.112Z,0.70
2022-11-04T03:49:34.888Z,1.00
2022-11-04T03:52:06.656Z,0.77
2022-11-04T03:54:38.462Z,0.80
2022-11-04T03:57:10.237Z,0.90
2022-11-04T03:59:42.113Z,0.90
2022-11-04T04:02:14.000Z,0.80
2022-11-04T04:04:45.828Z,1.00
2022-11-04T04:07:17.615Z,1.17
2022-11-04T04:09:49.448Z,1.30
2022-11-04T04:12:21.208Z,0.80
2022-11-04T04:14:53.004Z,1.17
2022-11-04T04:17:24.789Z,1.13
2022-11-04T04:19:56.564Z,1.57
2022-11-04T04:22:28.649Z,1.53
2022-11-04T04:25:00.464Z,1.63
2022-11-04T04:27:32.314Z,2.27
2022-11-04T04:30:04.154Z,2.10
2022-11-04T04:32:35.940Z,2.33
2022-11-04T04:35:07.742Z,2.10
2022-11-04T04:37:39.515Z,2.10
2022-11-04T04:40:13.628Z,1.80
2022-11-04T04:42:45.428Z,2.63
2022-11-04T04:45:17.258Z,2.20
2022-11-04T04:47:49.055Z,2.10
2022-11-04T04:50:20.841Z,2.30
2022-11-04T04:52:52.829Z,2.43
2022-11-04T04:55:25.299Z,3.00
2022-11-04T04:57:57.107Z,2.57
2022-11-04T05:00:31.161Z,2.93
2022-11-04T05:03:02.967Z,2.70
2022-11-04T05:05:34.739Z,2.77
2022-11-04T05:08:06.989Z,2.30
2022-11-04T05:10:39.460Z,3.23
2022-11-04T05:13:11.272Z,3.10
2022-11-04T05:15:43.264Z,2.70
2022-11-04T05:18:15.122Z,2.37
2022-11-04T05:20:46.918Z,2.63
2022-11-04T05:23:18.704Z,2.47
2022-11-04T05:25:50.600Z,2.70
2022-11-04T05:28:22.463Z,3.13
2022-11-04T05:30:54.208Z,3.33
2022-11-04T05:33:25.980Z,3.50
2022-11-04T05:35:57.758Z,2.50
2022-11-04T05:38:29.574Z,2.67
2022-11-04T05:41:01.363Z,2.97
2022-11-04T05:43:33.146Z,2.93
2022-11-04T05:46:04.944Z,2.90
2022-11-04T05:48:40.533Z,4.37
2022-11-04T05:51:10.123Z,3.10
2022-11-04T05:53:42.131Z,2.70
2022-11-04T05:56:14.658Z,3.13
2022-11-04T05:58:46.649Z,3.43
2022-11-04T06:01:18.416Z,3.70
2022-11-04T06:03:50.433Z,2.70
2022-11-04T06:06:22.270Z,3.33
2022-11-04T06:08:54.031Z,2.63
2022-11-04T06:11:25.855Z,3.17
2022-11-04T06:13:57.639Z,2.97
2022-11-04T06:16:29.819Z,3.33
2022-11-04T06:19:05.966Z,3.13
2022-11-04T06:21:35.077Z,3.10
2022-11-04T06:24:06.883Z,3.30
2022-11-04T06:26:38.634Z,2.90
2022-11-04T06:29:10.519Z,3.07
2022-11-04T06:31:42.310Z,3.53
2022-11-04T06:34:14.105Z,2.80
2022-11-04T06:36:45.876Z,3.13
2022-11-04T06:39:17.717Z,2.90
2022-11-04T06:41:51.601Z,2.90
2022-11-04T06:44:22.876Z,2.50
2022-11-04T06:46:54.764Z,2.70
2022-11-04T06:49:26.643Z,2.60
2022-11-04T06:51:58.350Z,3.07
2022-11-04T06:54:30.120Z,2.77
2022-11-04T06:57:02.016Z,2.50
2022-11-04T06:59:33.858Z,2.00
2022-11-04T07:02:05.735Z,2.57
2022-11-04T07:04:37.875Z,2.50
2022-11-04T07:07:09.680Z,3.20
2022-11-04T07:09:41.470Z,2.60
2022-11-04T07:12:13.525Z,2.10
2022-11-04T07:14:45.322Z,2.60
2022-11-04T07:17:17.156Z,2.83
2022-11-04T07:19:48.954Z,2.30
2022-11-04T07:22:20.747Z,2.70
2022-11-04T07:24:52.548Z,2.33
2022-11-04T07:27:24.394Z,2.73
2022-11-04T07:29:56.296Z,2.20
2022-11-04T07:32:28.054Z,2.60
2022-11-04T07:34:59.836Z,2.10
2022-11-04T07:37:31.631Z,2.30
2022-11-04T07:40:03.436Z,2.33
2022-11-04T07:42:35.180Z,2.53
2022-11-04T07:45:08.660Z,2.37
2022-11-04T07:47:40.994Z,3.07
2022-11-04T07:50:12.891Z,2.10
2022-11-04T07:52:44.672Z,2.13
2022-11-04T07:55:16.453Z,2.60
2022-11-04T07:57:48.281Z,2.20
2022-11-04T08:00:20.055Z,2.53
2022-11-04T08:02:52.006Z,3.03
2022-11-04T08:05:23.902Z,1.87
2022-11-04T08:07:55.694Z,1.80
2022-11-04T08:10:27.947Z,1.97
2022-11-04T08:12:59.770Z,1.73
2022-11-04T08:15:31.582Z,1.97
2022-11-04T08:18:03.683Z,1.87
2022-11-04T08:20:35.502Z,2.23
2022-11-04T08:23:07.489Z,1.50
2022-11-04T08:25:39.905Z,2.13
2022-11-04T08:28:11.656Z,2.50
2022-11-04T08:30:43.738Z,2.67
2022-11-04T08:33:15.632Z,2.73
2022-11-04T08:35:47.657Z,1.93
2022-11-04T08:38:19.761Z,2.13
2022-11-04T08:40:57.074Z,1.43
2022-11-04T08:43:25.443Z,2.63
2022-11-04T08:45:57.237Z,1.60
2022-11-04T08:48:28.998Z,1.60
2022-11-04T08:51:00.821Z,1.43
2022-11-04T08:53:32.656Z,1.47
2022-11-04T08:56:04.431Z,1.97
2022-11-04T08:58:36.258Z,1.50
2022-11-04T09:01:08.024Z,2.50
2022-11-04T09:03:39.864Z,1.73
2022-11-04T09:06:12.560Z,1.80
2022-11-04T09:08:45.690Z,1.80
2022-11-04T09:11:17.528Z,2.40
2022-11-04T09:13:49.325Z,1.80
2022-11-04T09:16:21.341Z,1.30
2022-11-04T09:18:53.174Z,2.00
2022-11-04T09:21:24.963Z,1.60
2022-11-04T09:23:56.852Z,1.90
2022-11-04T09:26:28.622Z,1.80
2022-11-04T09:29:00.391Z,2.37
2022-11-04T09:31:32.169Z,1.67
2022-11-04T09:34:04.027Z,1.90
2022-11-04T09:36:35.905Z,1.77
2022-11-04T09:39:07.642Z,2.57
2022-11-04T09:41:39.433Z,3.50
2022-11-04T09:44:11.270Z,2.60
2022-11-04T09:46:43.031Z,2.80
2022-11-04T09:49:14.802Z,2.00
2022-11-04T09:51:55.303Z,2.87
2022-11-04T09:54:20.097Z,2.53
2022-11-04T09:56:51.930Z,2.27
2022-11-04T09:59:23.709Z,2.63
2022-11-04T10:01:55.602Z,2.80
2022-11-04T10:04:27.662Z,2.27
2022-11-04T10:06:59.460Z,2.00
2022-11-04T10:09:31.377Z,2.50
2022-11-04T10:12:03.193Z,2.10
2022-11-04T10:14:35.730Z,2.33
2022-11-04T10:17:07.716Z,2.60
2022-11-04T10:19:39.568Z,2.00
2022-11-04T10:22:11.381Z,1.97
2022-11-04T10:24:43.183Z,1.80
2022-11-04T10:27:14.977Z,1.73
2022-11-04T10:29:46.902Z,2.57
2022-11-04T10:32:22.361Z,2.83
2022-11-04T10:34:52.201Z,2.10
2022-11-04T10:37:23.982Z,1.73
2022-11-04T10:39:55.801Z,1.70
2022-11-04T10:42:27.616Z,2.40
2022-11-04T10:44:59.423Z,1.63
2022-11-04T10:47:31.236Z,1.90
2022-11-04T10:52:36.433Z,2.20
2022-11-04T10:55:08.494Z,2.17
2022-11-04T10:57:40.485Z,1.60
2022-11-04T11:00:12.322Z,2.30
2022-11-04T11:02:45.189Z,1.70
2022-11-04T11:05:17.043Z,1.80
2022-11-04T11:07:48.860Z,2.00
2022-11-04T11:10:20.650Z,1.80
2022-11-04T11:12:52.531Z,2.07
2022-11-04T11:15:24.302Z,2.03
2022-11-04T11:17:56.094Z,1.97
2022-11-04T11:20:27.906Z,2.30
2022-11-04T11:23:04.662Z,2.27
2022-11-04T11:25:33.226Z,2.63
2022-11-04T11:28:05.133Z,3.30
2022-11-04T11:30:36.981Z,2.10
2022-11-04T11:33:09.153Z,1.93
2022-11-04T11:35:41.164Z,3.10
2022-11-04T11:38:12.930Z,3.43
2022-11-04T11:41:10.429Z,1.90
2022-11-04T11:43:18.286Z,1.93
2022-11-04T11:45:50.014Z,2.50
2022-11-04T11:48:22.210Z,2.37
2022-11-04T11:50:54.069Z,1.60
2022-11-04T11:53:25.952Z,1.80
2022-11-04T11:55:57.735Z,1.30
2022-11-04T12:01:06.855Z,1.50
2022-11-04T12:06:17.044Z,1.10
2022-11-04T12:11:16.620Z,1.43
2022-11-04T12:13:48.506Z,1.70
2022-11-04T12:16:20.314Z,1.27
2022-11-04T12:18:52.129Z,1.37
2022-11-04T12:21:24.089Z,2.67
2022-11-04T12:23:56.058Z,1.70
2022-11-04T12:26:27.854Z,1.57
2022-11-04T12:28:59.680Z,1.50
2022-11-04T12:31:31.611Z,2.10
2022-11-04T12:34:03.449Z,1.70
2022-11-04T12:36:38.479Z,1.60
2022-11-04T12:39:08.713Z,2.50
2022-11-04T12:42:06.743Z,1.93
2022-11-04T12:44:13.991Z,1.53
2022-11-04T12:46:45.768Z,1.00
2022-11-04T12:49:17.728Z,1.30
2022-11-04T12:51:49.555Z,1.20
2022-11-04T12:54:21.466Z,0.50
2022-11-04T12:56:53.288Z,0.33
2022-11-04T12:59:25.049Z,0.40
2022-11-04T13:01:57.049Z,0.53
2022-11-04T13:04:28.797Z,0.40
2022-11-04T13:07:00.634Z,0.33
2022-11-04T13:09:32.397Z,0.37
2022-11-04T13:12:04.389Z,1.10
2022-11-04T13:14:36.266Z,0.30
2022-11-04T13:17:08.100Z,0.40
2022-11-04T13:19:39.861Z,0.70
2022-11-04T13:22:11.686Z,0.40
2022-11-04T13:24:43.461Z,0.50
2022-11-04T13:27:15.256Z,0.40
2022-11-04T13:29:47.024Z,0.20
2022-11-04T13:32:18.967Z,0.37
2022-11-04T13:34:50.662Z,0.27
2022-11-04T13:37:22.507Z,0.40
2022-11-04T13:39:54.250Z,0.30
2022-11-04T13:42:26.065Z,1.07
2022-11-04T13:44:57.948Z,0.20
2022-11-04T13:47:29.717Z,0.30
2022-11-04T13:50:01.521Z,0.40
2022-11-04T13:52:33.332Z,0.53
2022-11-04T13:55:05.080Z,0.43
2022-11-04T13:57:36.882Z,0.30
2022-11-04T14:00:08.700Z,0.30
2022-11-04T14:02:40.630Z,1.27
2022-11-04T14:05:13.161Z,0.70
2022-11-04T14:07:45.084Z,0.60
2022-11-04T14:10:16.983Z,0.67
2022-11-04T14:12:48.948Z,1.10
2022-11-04T14:15:20.793Z,0.90
2022-11-04T14:17:52.540Z,0.60
2022-11-04T14:20:24.629Z,0.70
2022-11-04T14:22:56.631Z,0.80
2022-11-04T14:25:28.561Z,1.53
2022-11-04T14:28:02.584Z,0.60
2022-11-04T14:30:34.535Z,0.70
2022-11-04T14:33:06.691Z,1.10
2022-11-04T14:35:38.589Z,1.80
2022-11-04T14:38:10.629Z,1.40
2022-11-04T14:40:42.482Z,1.37
2022-11-04T14:43:14.593Z,1.00
2022-11-04T14:45:46.500Z,0.77
2022-11-04T14:48:18.292Z,2.63
2022-11-04T14:50:50.248Z,1.27
2022-11-04T14:53:22.032Z,1.17
2022-11-04T14:55:54.005Z,0.73
2022-11-04T14:58:25.862Z,0.53
2022-11-04T15:00:59.292Z,0.80
2022-11-04T15:04:10.765Z,0.60
2022-11-04T15:06:04.791Z,0.50
2022-11-04T15:08:36.610Z,0.70
2022-11-04T15:11:12.488Z,0.63
2022-11-04T15:13:41.981Z,0.73
2022-11-04T15:16:13.753Z,0.50
2022-11-04T15:18:45.523Z,0.73
2022-11-04T15:21:17.408Z,0.33
2022-11-04T15:23:49.361Z,0.40
2022-11-04T15:26:26.466Z,0.60
2022-11-04T15:28:54.728Z,1.20
2022-11-04T15:31:28.995Z,1.20
2022-11-04T15:34:00.971Z,1.00
2022-11-04T15:36:32.879Z,1.00
2022-11-04T15:39:04.702Z,1.00
2022-11-04T15:41:38.599Z,0.83
2022-11-04T15:44:10.645Z,0.80
2022-11-04T15:46:42.826Z,1.00
2022-11-04T15:49:15.073Z,1.50
2022-11-04T15:51:47.164Z,0.90
2022-11-04T15:54:19.005Z,0.80
2022-11-04T15:56:51.018Z,0.90
2022-11-04T15:59:22.831Z,0.60
2022-11-04T16:01:54.854Z,0.67
2022-11-04T16:04:26.704Z,0.70
2022-11-04T16:06:58.517Z,0.70
2022-11-04T16:09:30.465Z,0.63
2022-11-04T16:12:02.247Z,0.93
2022-11-04T16:14:34.336Z,0.73
2022-11-04T16:17:06.123Z,0.60
2022-11-04T16:19:37.983Z,0.77
2022-11-04T16:22:09.708Z,0.70
2022-11-04T16:24:41.532Z,0.70
2022-11-04T16:27:13.591Z,1.23
2022-11-04T16:29:47.954Z,0.60
2022-11-04T16:32:19.027Z,0.70
2022-11-04T16:34:50.849Z,0.67
2022-11-04T16:37:22.625Z,0.83
2022-11-04T16:39:54.414Z,0.87
2022-11-04T16:42:26.219Z,0.90
2022-11-04T16:44:58.128Z,0.90
2022-11-04T16:47:29.954Z,0.80
2022-11-04T16:50:01.837Z,0.60
2022-11-04T16:52:33.792Z,0.53
2022-11-04T16:55:05.773Z,0.90
2022-11-04T16:57:37.589Z,0.70
2022-11-04T17:00:09.438Z,0.80
2022-11-04T17:02:41.667Z,0.77
2022-11-04T17:05:13.736Z,0.90
2022-11-04T17:07:55.512Z,0.90
2022-11-04T17:10:18.970Z,1.20
2022-11-04T17:12:50.860Z,0.93
2022-11-04T17:15:22.620Z,1.00
2022-11-04T17:17:54.498Z,1.03
2022-11-04T17:20:26.325Z,1.00
2022-11-04T17:22:58.315Z,1.20
2022-11-04T17:25:30.125Z,1.40
2022-11-04T17:28:01.899Z,1.40
2022-11-04T17:30:33.719Z,1.10
2022-11-04T17:33:05.519Z,1.80
2022-11-04T17:35:37.297Z,1.60
2022-11-04T17:38:09.158Z,1.60
2022-11-04T17:40:41.024Z,1.80
2022-11-04T17:43:12.992Z,1.87
2022-11-04T17:45:44.876Z,1.97
2022-11-04T17:48:16.704Z,1.63
2022-11-04T17:50:48.504Z,1.37
2022-11-04T17:53:20.416Z,1.40
2022-11-04T17:55:52.213Z,1.73
2022-11-04T17:58:24.019Z,1.03
2022-11-04T18:00:55.913Z,1.43
2022-11-04T18:03:27.821Z,1.40
2022-11-04T18:05:59.627Z,1.43
2022-11-04T18:08:31.483Z,1.40
2022-11-04T18:11:03.312Z,1.40
2022-11-04T18:13:35.114Z,1.23
2022-11-04T18:16:06.951Z,1.20
2022-11-04T18:18:38.787Z,1.23
2022-11-04T18:21:10.587Z,1.50
2022-11-04T18:23:42.537Z,1.10
2022-11-04T18:26:14.331Z,1.53
2022-11-04T18:28:46.147Z,1.70
2022-11-04T18:31:17.998Z,1.10
2022-11-04T18:33:49.991Z,1.10
2022-11-04T18:36:21.951Z,1.90
2022-11-04T18:38:53.712Z,1.67
2022-11-04T18:41:26.202Z,1.50
2022-11-04T18:43:58.018Z,2.40
2022-11-04T18:46:29.812Z,1.80
2022-11-04T18:49:01.628Z,1.50
2022-11-04T18:51:33.480Z,1.70
2022-11-04T18:54:05.279Z,1.30
2022-11-04T18:56:37.097Z,1.47
2022-11-04T18:59:09.952Z,1.53
2022-11-04T19:01:41.951Z,1.50
2022-11-04T19:04:13.977Z,1.60
2022-11-04T19:06:45.847Z,1.40
2022-11-04T19:09:47.950Z,1.67
2022-11-04T19:11:51.110Z,1.57
2022-11-04T19:14:23.296Z,3.20
2022-11-04T19:16:55.155Z,4.63
2022-11-04T19:19:26.951Z,5.50
2022-11-04T19:21:58.797Z,4.80
2022-11-04T19:24:30.565Z,3.87
2022-11-04T19:27:02.433Z,3.73
2022-11-04T19:29:34.274Z,3.17
2022-11-04T19:32:11.102Z,3.00
2022-11-04T19:34:39.514Z,2.27
2022-11-04T19:37:11.462Z,2.30
2022-11-04T19:39:43.276Z,2.53
2022-11-04T19:42:15.156Z,2.00
2022-11-04T19:44:46.971Z,2.20
2022-11-04T19:47:19.549Z,2.20
2022-11-04T19:49:51.335Z,2.00
2022-11-04T19:52:23.132Z,1.60
2022-11-04T19:54:54.924Z,1.90
2022-11-04T19:57:26.753Z,2.30
2022-11-04T19:59:58.538Z,2.63
2022-11-04T20:02:30.425Z,2.07
2022-11-04T20:05:02.434Z,2.00
2022-11-04T20:07:34.486Z,2.83
2022-11-04T20:10:06.345Z,2.30
2022-11-04T20:12:38.183Z,1.90
2022-11-04T20:15:09.992Z,2.03
2022-11-04T20:17:41.845Z,1.60
2022-11-04T20:20:13.597Z,1.40
2022-11-04T20:22:45.398Z,1.93
2022-11-04T20:25:17.244Z,1.57
2022-11-04T20:27:49.053Z,1.80
2022-11-04T20:30:21.005Z,1.57
2022-11-04T20:32:52.836Z,1.63
2022-11-04T20:35:24.660Z,1.93
2022-11-04T20:37:56.617Z,1.50
2022-11-04T20:40:28.406Z,1.57
2022-11-04T20:43:00.216Z,1.40
2022-11-04T20:45:32.042Z,1.80
2022-11-04T20:48:03.987Z,2.30
2022-11-04T20:50:35.723Z,2.20
2022-11-04T20:53:07.494Z,1.90
2022-11-04T20:55:39.277Z,2.13
2022-11-04T20:58:11.277Z,1.93
2022-11-04T21:00:43.356Z,2.20
2022-11-04T21:03:15.132Z,1.83
2022-11-04T21:05:46.921Z,1.57
2022-11-04T21:08:18.725Z,1.60
2022-11-04T21:10:50.571Z,2.10
2022-11-04T21:13:22.403Z,2.40
2022-11-04T21:15:54.537Z,2.60
2022-11-04T21:18:26.279Z,2.53
2022-11-04T21:20:58.060Z,2.20
2022-11-04T21:23:29.940Z,1.90
2022-11-04T21:26:01.750Z,2.13
2022-11-04T21:28:33.517Z,3.07
2022-11-04T21:31:05.292Z,2.67
2022-11-04T21:33:37.123Z,2.70
2022-11-04T21:36:08.962Z,1.90
2022-11-04T21:38:40.983Z,1.93
2022-11-04T21:41:12.771Z,1.43
2022-11-04T21:43:44.627Z,0.80
2022-11-04T21:46:16.425Z,2.00
2022-11-04T21:48:48.768Z,1.57
2022-11-04T21:51:21.337Z,0.80
2022-11-04T21:53:53.793Z,1.10
2022-11-04T21:56:26.531Z,0.70
2022-11-04T21:58:59.217Z,0.43
2022-11-04T22:01:31.499Z,0.60
2022-11-04T22:04:03.453Z,0.73
2022-11-04T22:06:35.911Z,0.60
2022-11-04T22:09:07.725Z,0.70
2022-11-04T22:11:39.720Z,0.60
2022-11-04T22:14:12.065Z,0.60
2022-11-04T22:16:44.240Z,1.20
2022-11-04T22:19:16.250Z,0.60
2022-11-04T22:21:48.027Z,0.80
2022-11-04T22:24:19.892Z,0.67
2022-11-04T22:26:51.680Z,0.60
2022-11-04T22:29:23.841Z,0.60
2022-11-04T22:31:55.719Z,0.53
2022-11-04T22:34:27.564Z,1.00
2022-11-04T22:36:59.466Z,1.10
2022-11-04T22:39:31.377Z,0.77
2022-11-04T22:42:03.175Z,1.07
2022-11-04T22:44:35.518Z,0.80
2022-11-04T22:47:07.529Z,0.70
2022-11-04T22:49:39.399Z,0.70
2022-11-04T22:52:11.177Z,0.80
2022-11-04T22:54:43.086Z,0.57
2022-11-04T22:57:15.741Z,1.50
2022-11-04T22:59:47.666Z,0.70
2022-11-04T23:02:19.727Z,0.80
2022-11-04T23:04:51.818Z,0.90
2022-11-04T23:07:23.663Z,1.07
2022-11-04T23:09:55.438Z,0.80
2022-11-04T23:12:27.224Z,0.90
2022-11-04T23:14:59.034Z,0.63
2022-11-04T23:17:30.920Z,1.00
2022-11-04T23:20:02.795Z,0.80
2022-11-04T23:22:34.587Z,1.27
2022-11-04T23:25:06.496Z,1.30
2022-11-04T23:27:38.280Z,1.20
2022-11-04T23:30:10.068Z,1.00
2022-11-04T23:32:41.866Z,0.80
2022-11-04T23:35:13.772Z,1.30
2022-11-04T23:37:45.547Z,1.33
2022-11-04T23:40:17.329Z,1.73
2022-11-04T23:42:49.147Z,1.10
2022-11-04T23:45:20.931Z,1.60
2022-11-04T23:47:52.783Z,1.13
2022-11-04T23:50:24.743Z,1.10
2022-11-04T23:52:56.526Z,0.90
2022-11-04T23:55:28.272Z,1.07
2022-11-04T23:58:00.168Z,0.90
